Time;durP1;ratioP1;P1;durP2;ratioP2;P2;SDS_P1;SDS_P2;PMS_P1;PMS_P2;Temp;Humidity;BMP_temperature;BMP_pressure;BME280_temperature;BME280_humidity;BME280_pressure;Samples;Min_cycle;Max_cycle;Signal;HPM_P1;HPM_P2
2022/03/20 00:00:47;;;;;;;8.93;5.00;;;5.00;99.90;;;;;;5157017;27;20081;-78
2022/03/20 00:03:14;;;;;;;13.90;5.07;;;5.00;99.90;;;;;;5157690;27;20042;-78
2022/03/20 00:05:41;;;;;;;;;;;5.00;99.90;;;;;;5157638;27;20050;-79
2022/03/20 00:08:09;;;;;;;11.48;4.93;;;4.90;99.90;;;;;;5138949;27;19919;-79
2022/03/20 00:10:42;;;;;;;10.68;4.72;;;5.00;99.90;;;;;;5157121;27;20058;-79
2022/03/20 00:13:09;;;;;;;13.15;4.50;;;4.90;99.90;;;;;;5139004;27;20043;-79
2022/03/20 00:15:40;;;;;;;9.88;4.45;;;4.90;99.90;;;;;;5121466;27;20046;-78
2022/03/20 00:18:09;;;;;;;10.88;4.45;;;4.90;99.90;;;;;;5156833;27;20054;-79
2022/03/20 00:20:37;;;;;;;6.28;4.45;;;4.90;99.90;;;;;;5156894;27;20042;-78
2022/03/20 00:23:04;;;;;;;9.88;4.82;;;4.80;99.90;;;;;;5156862;27;20118;-78
2022/03/20 00:25:31;;;;;;;8.50;5.07;;;4.90;99.90;;;;;;5156710;27;20043;-79
2022/03/20 00:27:57;;;;;;;8.30;4.82;;;4.80;99.90;;;;;;5157276;27;20046;-79
2022/03/20 00:30:22;;;;;;;10.02;5.25;;;4.80;99.90;;;;;;5156699;27;20134;-78
2022/03/20 00:32:48;;;;;;;11.45;5.45;;;4.80;99.90;;;;;;5156688;27;20035;-78
2022/03/20 00:35:13;;;;;;;12.40;5.47;;;4.70;99.90;;;;;;5138317;27;20505;-78
2022/03/20 00:37:39;;;;;;;14.95;5.72;;;4.70;99.90;;;;;;5156606;27;20054;-78
2022/03/20 00:40:05;;;;;;;10.13;5.25;;;4.60;99.90;;;;;;5156488;27;20046;-79
2022/03/20 00:42:31;;;;;;;9.52;5.20;;;4.60;99.90;;;;;;5156460;27;20057;-78
2022/03/20 00:44:56;;;;;;;10.10;5.30;;;4.60;99.90;;;;;;5156502;27;20043;-78
2022/03/20 00:47:22;;;;;;;10.32;6.13;;;4.60;99.90;;;;;;5156286;27;20051;-78
2022/03/20 00:49:47;;;;;;;8.60;5.45;;;4.60;99.90;;;;;;5156309;27;20039;-78
2022/03/20 00:52:13;;;;;;;12.32;5.97;;;4.60;99.90;;;;;;5156407;27;20039;-79
2022/03/20 00:54:39;;;;;;;9.88;7.05;;;4.60;99.90;;;;;;5156044;27;20045;-78
2022/03/20 00:57:04;;;;;;;9.40;5.93;;;4.60;99.90;;;;;;5156233;27;20038;-78
2022/03/20 00:59:30;;;;;;;15.27;6.47;;;4.60;99.90;;;;;;5137909;27;20071;-78
2022/03/20 01:01:55;;;;;;;10.65;6.50;;;4.60;99.90;;;;;;5156134;27;20419;-79
2022/03/20 01:04:21;;;;;;;15.48;7.05;;;4.60;99.90;;;;;;5137925;27;20051;-79
2022/03/20 01:06:46;;;;;;;9.63;6.07;;;4.60;99.90;;;;;;5156044;27;20505;-78
2022/03/20 01:09:12;;;;;;;10.07;6.55;;;4.70;99.90;;;;;;5155909;27;20047;-78
2022/03/20 01:11:38;;;;;;;11.50;6.57;;;4.70;99.90;;;;;;5156324;27;20435;-78
2022/03/20 01:14:04;;;;;;;13.40;6.88;;;4.70;99.90;;;;;;5155887;27;20047;-78
2022/03/20 01:16:30;;;;;;;13.10;6.95;;;4.60;99.90;;;;;;5155897;27;20125;-78
2022/03/20 01:18:56;;;;;;;14.13;6.97;;;4.60;99.90;;;;;;5156003;27;20046;-78
2022/03/20 01:21:21;;;;;;;14.63;7.07;;;4.60;99.90;;;;;;5155888;27;20474;-78
2022/03/20 01:23:47;;;;;;;16.45;7.00;;;4.60;99.90;;;;;;5120223;27;20039;-78
2022/03/20 01:26:12;;;;;;;12.73;7.25;;;4.50;99.90;;;;;;5155761;27;20399;-79
2022/03/20 01:28:38;;;;;;;14.95;7.15;;;4.50;99.90;;;;;;5155631;27;20061;-78
2022/03/20 01:31:04;;;;;;;11.00;7.30;;;4.50;99.90;;;;;;5155867;27;20171;-78
2022/03/20 01:33:29;;;;;;;14.55;6.82;;;4.30;99.90;;;;;;5155607;27;20475;-79
2022/03/20 01:35:55;;;;;;;11.95;6.95;;;4.40;99.90;;;;;;5155584;27;20039;-78
2022/03/20 01:38:20;;;;;;;15.18;6.85;;;4.30;99.90;;;;;;5155364;27;20053;-79
2022/03/20 01:40:47;;;;;;;11.35;7.35;;;4.20;99.90;;;;;;5155517;27;20038;-79
2022/03/20 01:43:14;;;;;;;12.15;6.28;;;5.00;99.90;;;;;;5155542;27;20090;-78
2022/03/20 01:45:40;;;;;;;10.65;6.68;;;4.20;99.90;;;;;;5155915;27;20058;-77
2022/03/20 01:48:06;;;;;;;9.90;6.35;;;4.30;99.90;;;;;;5137654;27;20386;-79
2022/03/20 01:50:32;;;;;;;12.02;6.57;;;4.20;99.90;;;;;;5137233;27;20053;-79
2022/03/20 01:52:58;;;;;;;11.43;6.17;;;4.10;99.90;;;;;;5155459;27;20430;-79
2022/03/20 01:55:24;;;;;;;10.43;6.13;;;4.10;99.90;;;;;;5155302;27;20465;-79
2022/03/20 01:57:51;;;;;;;14.07;6.93;;;4.10;99.90;;;;;;5155355;27;20043;-79
2022/03/20 02:00:19;;;;;;;15.13;8.20;;;4.20;99.90;;;;;;5155219;27;20531;-79
2022/03/20 02:02:45;;;;;;;11.43;6.40;;;3.90;99.90;;;;;;5155301;27;20091;-78
2022/03/20 02:05:12;;;;;;;13.10;6.75;;;3.90;99.90;;;;;;5155139;27;20462;-79
2022/03/20 02:07:40;;;;;;;13.50;6.95;;;4.10;99.90;;;;;;5155347;27;20049;-78
2022/03/20 02:10:06;;;;;;;10.35;6.38;;;3.90;99.90;;;;;;5154986;27;20050;-78
2022/03/20 02:12:34;;;;;;;12.73;6.95;;;3.80;99.90;;;;;;5154920;27;20613;-79
2022/03/20 02:15:01;;;;;;;16.15;7.47;;;3.70;99.90;;;;;;5155181;27;20122;-78
2022/03/20 02:17:28;;;;;;;16.92;8.20;;;3.70;99.90;;;;;;5155412;27;20049;-78
2022/03/20 02:19:59;;;;;;;17.38;8.43;;;3.80;99.90;;;;;;5136688;27;20043;-78
2022/03/20 02:22:25;;;;;;;16.08;7.85;;;3.60;99.90;;;;;;5155442;27;20042;-78
2022/03/20 02:24:51;;;;;;;14.25;6.97;;;3.70;99.90;;;;;;5155605;27;20075;-78
2022/03/20 02:27:18;;;;;;;12.10;6.30;;;3.50;99.90;;;;;;5155088;27;20046;-79
2022/03/20 02:29:45;;;;;;;;;;;3.50;99.90;;;;;;5155483;27;20035;-79
2022/03/20 02:32:12;;;;;;;14.00;7.45;;;3.50;99.90;;;;;;5136833;27;19919;-78
2022/03/20 02:34:39;;;;;;;14.20;8.05;;;3.40;99.90;;;;;;5155327;27;20424;-78
2022/03/20 02:37:05;;;;;;;12.98;6.88;;;3.40;99.90;;;;;;5158971;27;20050;-77
2022/03/20 02:39:31;;;;;;;14.05;8.35;;;3.40;99.90;;;;;;5158903;27;20127;-78
2022/03/20 02:42:04;;;;;;;13.00;7.07;;;3.40;99.90;;;;;;5140423;27;20061;-79
2022/03/20 02:44:50;;;;;;;13.20;7.78;;;3.40;99.90;;;;;;5159130;27;20068;-78
2022/03/20 02:47:26;;;;;;;15.52;7.50;;;3.30;99.90;;;;;;5158568;27;20072;-79
2022/03/20 02:50:00;;;;;;;14.70;7.63;;;3.30;99.90;;;;;;5158522;27;20046;-78
2022/03/20 02:52:43;;;;;;;12.57;7.68;;;3.30;99.90;;;;;;5158686;27;20050;-79
2022/03/20 02:55:09;;;;;;;15.00;8.13;;;3.20;99.90;;;;;;5158663;27;20487;-78
2022/03/20 02:57:35;;;;;;;13.75;7.50;;;3.20;99.90;;;;;;5158750;27;20047;-78
2022/03/20 03:00:03;;;;;;;15.43;8.15;;;3.30;99.90;;;;;;5158582;27;20046;-79
2022/03/20 03:02:31;;;;;;;15.45;7.85;;;3.20;99.90;;;;;;5158489;27;20043;-79
2022/03/20 03:04:59;;;;;;;;;;;3.10;99.90;;;;;;5158962;27;20060;-79
2022/03/20 03:10:55;;;;;;;12.45;7.35;;;3.10;99.90;;;;;;5158693;27;19919;-78
2022/03/20 03:13:12;;;;;;;13.18;7.53;;;3.10;99.90;;;;;;5158301;27;20062;-78
2022/03/20 03:15:37;;;;;;;13.00;8.30;;;3.10;99.90;;;;;;5139852;27;20039;-78
2022/03/20 03:18:03;;;;;;;19.23;8.02;;;3.10;99.90;;;;;;5158248;27;20045;-78
2022/03/20 03:20:30;;;;;;;14.13;8.35;;;3.10;99.90;;;;;;5158169;27;20125;-78
2022/03/20 03:22:55;;;;;;;17.02;8.48;;;3.10;99.90;;;;;;5158128;27;20046;-78
2022/03/20 03:25:23;;;;;;;15.98;8.00;;;3.10;99.90;;;;;;5139830;27;20091;-78
2022/03/20 03:27:48;;;;;;;21.52;8.70;;;3.00;99.90;;;;;;5139543;27;20038;-78
2022/03/20 03:30:15;;;;;;;14.70;8.15;;;3.00;99.90;;;;;;5139572;27;20372;-78
2022/03/20 03:32:41;;;;;;;13.63;8.23;;;3.00;99.90;;;;;;5157937;27;20050;-78
2022/03/20 03:37:56;;;;;;;15.43;8.00;;;2.90;99.90;;;;;;5157729;27;20055;-78
2022/03/20 03:40:22;;;;;;;13.27;8.60;;;2.90;99.90;;;;;;5157831;27;20049;-78
2022/03/20 03:42:47;;;;;;;14.48;8.82;;;2.90;99.90;;;;;;5157791;27;20046;-78
2022/03/20 03:45:13;;;;;;;16.63;10.25;;;2.70;99.90;;;;;;5157703;27;20386;-78
2022/03/20 03:47:40;;;;;;;19.98;9.35;;;2.80;99.90;;;;;;5156236;27;20039;-79
2022/03/20 03:50:09;;;;;;;;;;;3.10;99.90;;;;;;5157693;27;20042;-78
2022/03/20 03:52:38;;;;;;;21.40;10.38;;;2.80;99.90;;;;;;5157560;27;20010;-78
2022/03/20 03:55:05;;;;;;;18.83;9.85;;;2.70;99.90;;;;;;5157682;27;20530;-79
2022/03/20 03:57:31;;;;;;;18.55;9.85;;;2.70;99.90;;;;;;5157179;27;20046;-78
2022/03/20 03:59:57;;;;;;;18.63;9.02;;;2.70;99.90;;;;;;5157525;27;20039;-78
2022/03/20 04:02:23;;;;;;;17.97;10.33;;;2.70;99.90;;;;;;5157341;27;20061;-79
2022/03/20 04:04:48;;;;;;;18.73;10.45;;;2.70;99.90;;;;;;5157069;27;20038;-79
2022/03/20 04:07:18;;;;;;;17.98;10.07;;;2.60;99.90;;;;;;5138839;27;20049;-79
2022/03/20 04:09:45;;;;;;;18.50;10.55;;;2.70;99.90;;;;;;5156986;27;20092;-79
2022/03/20 04:12:15;;;;;;;21.50;10.38;;;2.60;99.90;;;;;;5157518;27;20126;-78
2022/03/20 04:14:41;;;;;;;19.05;10.05;;;2.60;99.90;;;;;;5157050;27;20031;-79
2022/03/20 04:17:07;;;;;;;21.90;11.13;;;2.60;99.90;;;;;;5157090;27;20038;-78
2022/03/20 04:19:33;;;;;;;19.33;10.30;;;2.60;99.90;;;;;;5138544;27;20183;-79
2022/03/20 04:22:02;;;;;;;19.20;10.80;;;2.60;99.90;;;;;;5156985;27;20053;-79
2022/03/20 04:24:28;;;;;;;19.13;9.57;;;2.60;99.90;;;;;;5156921;27;20043;-78
2022/03/20 04:26:54;;;;;;;21.60;10.23;;;2.50;99.90;;;;;;5139085;27;20397;-79
2022/03/20 04:29:20;;;;;;;19.98;10.77;;;2.50;99.90;;;;;;5157161;27;20479;-78
2022/03/20 04:31:47;;;;;;;19.42;10.38;;;2.50;99.90;;;;;;5156848;27;20045;-79
2022/03/20 04:34:13;;;;;;;19.50;10.93;;;2.50;99.90;;;;;;5156613;27;20089;-78
2022/03/20 04:36:38;;;;;;;27.33;11.15;;;2.50;99.90;;;;;;5156778;27;20078;-78
2022/03/20 04:39:04;;;;;;;18.70;10.38;;;2.50;99.90;;;;;;5138207;27;20412;-78
2022/03/20 04:41:30;;;;;;;18.45;9.90;;;2.50;99.90;;;;;;5156668;27;20129;-77
2022/03/20 04:43:57;;;;;;;19.23;11.33;;;2.50;99.90;;;;;;5156716;27;20034;-79
2022/03/20 04:46:22;;;;;;;21.75;10.98;;;2.50;99.90;;;;;;5156645;27;20053;-78
2022/03/20 04:59:45;;;;;;;22.42;11.95;;;2.40;99.90;;;;;;5138694;27;20046;-78
2022/03/20 05:02:11;;;;;;;16.35;10.25;;;2.40;99.90;;;;;;5137677;27;20043;-78
2022/03/20 05:04:37;;;;;;;18.83;11.70;;;2.40;99.90;;;;;;5156617;27;20034;-78
2022/03/20 05:07:03;;;;;;;20.50;11.20;;;2.40;99.90;;;;;;5156191;27;20051;-78
2022/03/20 05:14:59;;;;;;;21.15;11.15;;;2.70;99.90;;;;;;5155975;27;20047;-78
2022/03/20 05:17:25;;;;;;;;;;;2.40;99.90;;;;;;5155960;27;20053;-79
2022/03/20 05:19:50;;;;;;;19.48;11.25;;;2.40;99.90;;;;;;5137419;27;19919;-79
2022/03/20 05:22:16;;;;;;;18.27;10.75;;;2.40;99.90;;;;;;5155724;27;20086;-79
2022/03/20 05:24:41;;;;;;;22.92;12.18;;;2.40;99.90;;;;;;5156233;27;20051;-78
2022/03/20 05:27:07;;;;;;;22.45;11.35;;;2.40;99.90;;;;;;5155788;27;20460;-79
2022/03/20 05:29:34;;;;;;;18.40;10.90;;;2.30;99.90;;;;;;5155758;27;20051;-78
2022/03/20 05:32:04;;;;;;;17.95;11.52;;;2.80;99.90;;;;;;5155765;27;20039;-79
2022/03/20 05:34:30;;;;;;;20.63;11.95;;;2.30;99.90;;;;;;5155669;27;20371;-78
2022/03/20 05:36:59;;;;;;;20.65;11.05;;;2.30;99.90;;;;;;5155523;27;20175;-77
2022/03/20 05:39:24;;;;;;;21.48;11.80;;;2.20;99.90;;;;;;5155560;27;20042;-79
2022/03/20 05:41:51;;;;;;;21.33;11.25;;;2.20;99.90;;;;;;5155923;27;20505;-78
2022/03/20 05:44:22;;;;;;;18.92;11.15;;;2.20;99.90;;;;;;5137327;27;20046;-78
2022/03/20 05:46:49;;;;;;;19.17;12.13;;;2.20;99.90;;;;;;5137137;27;20042;-78
2022/03/20 05:49:19;;;;;;;22.83;11.63;;;2.20;99.90;;;;;;5155297;27;20039;-79
2022/03/20 05:51:46;;;;;;;21.10;11.52;;;2.20;99.90;;;;;;5137165;27;20526;-78
2022/03/20 05:54:12;;;;;;;;;;;2.20;99.90;;;;;;5137688;27;20042;-79
2022/03/20 05:59:21;;;;;;;26.13;12.40;;;2.30;99.90;;;;;;5139792;27;20232;-80
2022/03/20 06:01:51;;;;;;;18.08;11.55;;;2.30;99.90;;;;;;5155030;27;20086;-77
2022/03/20 06:04:17;;;;;;;23.60;11.90;;;2.50;99.90;;;;;;5155217;27;20083;-78
2022/03/20 06:06:43;;;;;;;21.63;11.43;;;2.30;99.90;;;;;;5155021;27;20474;-77
2022/03/20 06:09:09;;;;;;;20.10;11.05;;;2.30;99.90;;;;;;5155480;27;20126;-77
2022/03/20 06:11:35;;;;;;;23.38;11.98;;;2.30;99.90;;;;;;5159295;27;20055;-78
2022/03/20 06:14:02;;;;;;;24.38;11.90;;;2.30;99.90;;;;;;5159373;27;20087;-76
2022/03/20 06:16:31;;;;;;;21.42;11.90;;;2.30;99.90;;;;;;5159353;27;20506;-77
2022/03/20 06:18:57;;;;;;;24.15;12.10;;;2.40;99.90;;;;;;5159256;27;20046;-78
2022/03/20 06:21:24;;;;;;;22.73;11.52;;;2.40;99.90;;;;;;5140519;27;20535;-76
2022/03/20 06:23:50;;;;;;;22.13;11.98;;;2.40;99.90;;;;;;5159260;27;20060;-73
2022/03/20 06:26:19;;;;;;;19.15;11.57;;;2.40;99.90;;;;;;5159219;27;20039;-76
2022/03/20 06:28:45;;;;;;;20.95;11.75;;;2.50;99.90;;;;;;5140597;27;20042;-76
2022/03/20 06:31:12;;;;;;;20.35;12.35;;;2.50;99.90;;;;;;5159381;27;20050;-75
2022/03/20 06:33:38;;;;;;;19.40;11.40;;;2.70;99.90;;;;;;5158689;27;20171;-80
2022/03/20 06:36:05;;;;;;;20.60;12.23;;;2.60;99.90;;;;;;5159261;27;20049;-75
2022/03/20 06:38:31;;;;;;;20.27;12.75;;;2.60;99.90;;;;;;5158947;27;20122;-73
2022/03/20 06:40:59;;;;;;;19.48;11.75;;;2.60;99.90;;;;;;5158926;27;20077;-76
2022/03/20 06:43:24;;;;;;;22.02;11.82;;;2.60;99.90;;;;;;5140830;27;20046;-77
2022/03/20 06:45:52;;;;;;;25.67;12.18;;;2.70;99.90;;;;;;5158809;27;20486;-73
2022/03/20 06:48:18;;;;;;;28.08;12.13;;;2.70;99.90;;;;;;5158757;27;20110;-76
2022/03/20 06:50:44;;;;;;;22.85;13.85;;;2.70;99.90;;;;;;5158790;27;20043;-75
2022/03/20 06:53:11;;;;;;;21.67;12.45;;;2.80;99.90;;;;;;5158714;27;20045;-74
2022/03/20 06:55:38;;;;;;;21.90;11.88;;;2.80;99.90;;;;;;5158502;27;20475;-77
2022/03/20 06:58:03;;;;;;;21.00;12.05;;;2.90;99.90;;;;;;5158712;27;20047;-78
2022/03/20 07:00:29;;;;;;;21.45;12.07;;;3.00;99.90;;;;;;5158564;27;20095;-78
2022/03/20 07:02:57;;;;;;;22.30;11.88;;;3.00;99.90;;;;;;5158532;27;20421;-78
2022/03/20 07:05:22;;;;;;;22.42;13.00;;;3.10;99.90;;;;;;5158405;27;20532;-78
2022/03/20 07:07:50;;;;;;;23.75;12.52;;;3.10;99.90;;;;;;5158406;27;20134;-76
2022/03/20 07:10:19;;;;;;;22.52;12.30;;;3.20;99.90;;;;;;5139785;27;20474;-76
2022/03/20 07:12:45;;;;;;;19.75;11.45;;;3.30;99.90;;;;;;5158303;27;20548;-77
2022/03/20 07:15:11;;;;;;;19.38;11.23;;;3.30;99.90;;;;;;5158131;27;20121;-77
2022/03/20 07:17:37;;;;;;;19.38;11.52;;;3.40;99.90;;;;;;5158278;27;20045;-77
2022/03/20 07:20:09;;;;;;;21.42;12.02;;;3.80;99.90;;;;;;5158084;27;20038;-77
2022/03/20 07:22:34;;;;;;;19.17;11.65;;;3.50;99.90;;;;;;5158423;27;20130;-77
2022/03/20 07:29:29;;;;;;;23.52;12.18;;;3.60;99.90;;;;;;5158127;27;20205;-77
2022/03/20 07:30:30;;;;;;;18.98;12.43;;;3.70;99.90;;;;;;5158151;27;20050;-78
2022/03/20 07:32:55;;;;;;;21.55;12.57;;;3.80;99.90;;;;;;5157875;27;20514;-77
2022/03/20 07:35:21;;;;;;;27.48;13.32;;;3.90;99.90;;;;;;5157897;27;20047;-77
2022/03/20 07:37:46;;;;;;;24.13;12.75;;;4.00;99.90;;;;;;5157733;27;20043;-76
2022/03/20 07:40:12;;;;;;;20.80;11.73;;;4.00;99.90;;;;;;5157832;27;20038;-77
2022/03/20 07:42:38;;;;;;;19.20;11.30;;;4.10;99.90;;;;;;5157762;27;20038;-77
2022/03/20 07:45:04;;;;;;;21.15;11.68;;;4.10;99.90;;;;;;5157714;27;20417;-76
2022/03/20 07:47:30;;;;;;;25.90;12.80;;;4.10;99.90;;;;;;5139145;27;20043;-79
2022/03/20 07:49:55;;;;;;;22.40;12.63;;;4.10;99.90;;;;;;5157839;27;20049;-76
2022/03/20 07:52:22;;;;;;;20.95;12.27;;;4.10;99.90;;;;;;5139168;27;20432;-78
2022/03/20 07:54:48;;;;;;;23.48;12.82;;;4.10;99.90;;;;;;5157415;27;20045;-78
2022/03/20 07:57:14;;;;;;;22.85;12.57;;;4.30;99.90;;;;;;5138922;27;20043;-78
2022/03/20 07:59:39;;;;;;;23.60;12.20;;;4.40;99.90;;;;;;5157324;27;20049;-78
2022/03/20 08:02:06;;;;;;;21.30;12.50;;;4.40;99.90;;;;;;5157841;27;20043;-78
2022/03/20 08:04:32;;;;;;;20.38;12.27;;;4.40;99.90;;;;;;5157321;27;20053;-78
2022/03/20 08:06:57;;;;;;;21.35;11.77;;;4.50;99.90;;;;;;5157241;27;20042;-78
2022/03/20 08:09:23;;;;;;;21.95;12.70;;;4.60;99.90;;;;;;5157221;27;20043;-77
2022/03/20 08:11:48;;;;;;;22.48;13.50;;;4.80;99.90;;;;;;5157611;27;20042;-78
2022/03/20 08:14:14;;;;;;;22.60;12.77;;;5.00;99.90;;;;;;5156661;27;20042;-78
2022/03/20 08:16:41;;;;;;;19.73;12.00;;;5.10;99.90;;;;;;5157490;27;20091;-78
2022/03/20 08:19:09;;;;;;;;;;;5.20;99.90;;;;;;5139310;27;20047;-74
2022/03/20 08:21:35;;;;;;;21.47;12.10;;;5.20;99.90;;;;;;5157000;27;19978;-77
2022/03/20 08:24:02;;;;;;;23.73;13.07;;;5.30;99.90;;;;;;5156709;27;20276;-77
2022/03/20 08:26:33;;;;;;;19.25;12.15;;;5.40;99.90;;;;;;5156821;27;20046;-75
2022/03/20 08:29:00;;;;;;;21.98;12.73;;;5.40;99.90;;;;;;5157184;27;20475;-76
2022/03/20 08:31:27;;;;;;;23.73;13.82;;;5.50;99.90;;;;;;5157138;27;20050;-79
2022/03/20 08:33:53;;;;;;;23.38;12.10;;;;;;;;;;5156136;27;20471;-77
2022/03/20 08:36:20;;;;;;;21.38;12.65;;;5.60;99.90;;;;;;5156885;27;20379;-78
2022/03/20 08:38:46;;;;;;;24.75;12.80;;;5.60;99.90;;;;;;5138218;27;20049;-77
2022/03/20 08:41:12;;;;;;;21.17;13.43;;;5.70;99.90;;;;;;5156617;27;20046;-78
2022/03/20 08:43:38;;;;;;;22.92;13.18;;;5.70;99.90;;;;;;5156585;27;20043;-78
2022/03/20 08:46:04;;;;;;;21.40;13.13;;;5.80;99.90;;;;;;5156912;27;20494;-77
2022/03/20 08:48:29;;;;;;;21.83;12.93;;;5.90;99.90;;;;;;5155389;27;20041;-76
2022/03/20 08:50:55;;;;;;;24.00;13.07;;;6.00;99.90;;;;;;5156087;27;20074;-76
2022/03/20 08:53:22;;;;;;;19.75;12.80;;;6.10;99.90;;;;;;5120295;27;20121;-76
2022/03/20 08:55:48;;;;;;;;;;;6.20;99.90;;;;;;5155509;27;20039;-78
2022/03/20 08:58:14;;;;;;;21.63;13.80;;;6.10;99.90;;;;;;5137474;27;19963;-77
2022/03/20 09:00:41;;;;;;;24.20;13.60;;;6.30;99.90;;;;;;5155955;27;20042;-75
2022/03/20 09:03:07;;;;;;;24.88;14.35;;;6.40;99.90;;;;;;5155776;27;20280;-76
2022/03/20 09:05:33;;;;;;;24.35;13.93;;;6.40;99.90;;;;;;5136969;27;20050;-76
2022/03/20 09:07:59;;;;;;;22.38;13.95;;;6.50;99.90;;;;;;5137050;27;20483;-76
2022/03/20 09:10:25;;;;;;;24.02;13.63;;;6.50;99.90;;;;;;5136651;27;20334;-76
2022/03/20 09:12:55;;;;;;;21.38;13.05;;;6.60;99.90;;;;;;5155698;27;20171;-76
2022/03/20 09:15:22;;;;;;;25.50;13.20;;;6.60;99.90;;;;;;5136844;27;20501;-76
2022/03/20 09:20:35;;;;;;;24.02;14.35;;;6.70;99.90;;;;;;5137358;27;20054;-76
2022/03/20 09:23:01;;;;;;;23.88;13.85;;;7.30;99.90;;;;;;5155417;27;20043;-76
2022/03/20 09:25:27;;;;;;;23.87;14.23;;;7.00;99.90;;;;;;5154993;27;20039;-78
2022/03/20 09:27:52;;;;;;;27.42;14.95;;;7.10;99.90;;;;;;5137375;27;20049;-77
2022/03/20 09:30:22;;;;;;;22.40;13.75;;;7.20;99.90;;;;;;5137102;27;20141;-74
2022/03/20 09:32:48;;;;;;;25.63;14.88;;;7.20;99.90;;;;;;5136945;27;20125;-77
2022/03/20 09:35:15;;;;;;;23.73;13.73;;;7.30;99.90;;;;;;5154530;27;20460;-77
2022/03/20 09:37:41;;;;;;;22.83;14.15;;;7.40;99.90;;;;;;5137196;27;20276;-77
2022/03/20 09:40:09;;;;;;;24.20;12.85;;;7.50;99.90;;;;;;5136283;27;20039;-77
2022/03/20 09:42:36;;;;;;;24.42;14.65;;;7.50;99.90;;;;;;5136758;27;20078;-77
2022/03/20 09:45:03;;;;;;;24.38;14.80;;;7.60;99.90;;;;;;5135333;27;20074;-78
2022/03/20 09:47:29;;;;;;;22.30;13.05;;;7.70;99.90;;;;;;5119722;27;20157;-78
2022/03/20 09:49:56;;;;;;;22.73;14.00;;;7.70;99.90;;;;;;5119630;27;20138;-78
2022/03/20 09:52:23;;;;;;;24.17;14.20;;;7.80;99.50;;;;;;5154799;27;20121;-78
2022/03/20 09:54:49;;;;;;;24.30;14.73;;;7.70;99.00;;;;;;5154646;27;20068;-77
2022/03/20 09:57:15;;;;;;;23.08;14.23;;;7.80;99.90;;;;;;5154817;27;20039;-79
2022/03/20 09:59:40;;;;;;;26.98;13.95;;;8.00;99.50;;;;;;5119755;27;20359;-78
2022/03/20 10:02:09;;;;;;;21.48;13.88;;;8.10;98.70;;;;;;5137110;27;20039;-77
2022/03/20 10:04:59;;;;;;;21.80;13.85;;;8.10;98.40;;;;;;5136485;27;20050;-77
2022/03/20 10:07:36;;;;;;;23.65;13.88;;;8.20;99.70;;;;;;5155174;27;20054;-76
2022/03/20 10:10:10;;;;;;;23.17;15.10;;;8.20;97.90;;;;;;5136034;27;20059;-76
2022/03/20 10:12:38;;;;;;;24.02;14.77;;;8.10;98.30;;;;;;5119526;27;20046;-75
2022/03/20 10:15:09;;;;;;;24.23;15.05;;;8.30;98.50;;;;;;5136196;27;20043;-78
2022/03/20 10:17:36;;;;;;;24.05;15.05;;;8.30;97.80;;;;;;5155056;27;20409;-77
2022/03/20 10:20:16;;;;;;;24.48;14.45;;;8.40;98.00;;;;;;5154994;27;20042;-77
2022/03/20 10:22:44;;;;;;;21.90;14.32;;;8.50;97.40;;;;;;5136065;27;20375;-77
2022/03/20 10:25:11;;;;;;;;;;;8.60;97.50;;;;;;5136831;27;20073;-77
2022/03/20 10:27:38;;;;;;;25.25;15.15;;;8.50;96.80;;;;;;5154824;27;19926;-78
2022/03/20 10:30:08;;;;;;;22.65;14.95;;;8.60;96.90;;;;;;5154947;27;20046;-78
2022/03/20 10:32:35;;;;;;;21.98;14.68;;;8.60;96.70;;;;;;5136790;27;20406;-77
2022/03/20 10:35:04;;;;;;;25.25;15.10;;;8.60;97.10;;;;;;5135602;27;20152;-76
2022/03/20 10:37:52;;;;;;;25.38;15.23;;;8.80;96.90;;;;;;5136420;27;20039;-77
2022/03/20 10:40:22;;;;;;;24.77;16.10;;;8.90;96.60;;;;;;5136540;27;20057;-77
2022/03/20 10:43:23;;;;;;;22.15;15.35;;;9.00;96.80;;;;;;5136581;27;20043;-77
2022/03/20 10:45:54;;;;;;;25.70;15.50;;;9.50;96.90;;;;;;5050346;28;20480;-76
2022/03/20 10:48:29;;;;;;;24.08;15.27;;;9.30;96.90;;;;;;5102273;27;20058;-76
2022/03/20 10:50:56;;;;;;;29.60;15.80;;;9.30;96.60;;;;;;5136381;27;20449;-76
2022/03/20 10:53:21;;;;;;;25.65;15.93;;;9.50;95.10;;;;;;5136347;27;20054;-76
2022/03/20 10:55:47;;;;;;;25.67;16.15;;;9.50;96.10;;;;;;5137147;27;20364;-76
2022/03/20 10:58:26;;;;;;;24.20;16.00;;;9.60;95.40;;;;;;5158404;27;20482;-77
2022/03/20 11:00:52;;;;;;;28.63;16.13;;;9.60;95.30;;;;;;5140032;27;20054;-78
2022/03/20 11:03:22;;;;;;;30.90;15.50;;;9.60;94.60;;;;;;5158519;27;20050;-77
2022/03/20 11:05:49;;;;;;;24.15;15.68;;;9.60;94.60;;;;;;5158747;27;20085;-77
2022/03/20 11:08:14;;;;;;;24.90;15.32;;;9.70;95.50;;;;;;5139869;27;20065;-77
2022/03/20 11:10:44;;;;;;;25.75;16.23;;;9.80;95.10;;;;;;5157943;27;20486;-76
2022/03/20 11:13:13;;;;;;;21.88;14.95;;;9.70;94.50;;;;;;5158094;27;20137;-77
2022/03/20 11:15:40;;;;;;;26.92;16.30;;;9.80;94.30;;;;;;5158080;27;20057;-77
2022/03/20 11:18:06;;;;;;;;;;;9.70;94.10;;;;;;5140421;27;20039;-76
2022/03/20 11:20:32;;;;;;;26.85;15.27;;;9.80;93.50;;;;;;5158144;27;19972;-77
2022/03/20 11:23:01;;;;;;;28.00;15.85;;;9.80;94.30;;;;;;5158140;27;20068;-76
2022/03/20 11:25:30;;;;;;;26.27;16.38;;;9.90;93.60;;;;;;5158121;27;20359;-76
2022/03/20 11:28:03;;;;;;;25.65;16.42;;;10.20;93.50;;;;;;5158014;27;20039;-76
2022/03/20 11:30:32;;;;;;;25.75;16.08;;;10.00;94.20;;;;;;5158478;27;20103;-76
2022/03/20 11:33:02;;;;;;;25.92;16.05;;;10.10;94.00;;;;;;5158229;27;20035;-77
2022/03/20 11:35:32;;;;;;;25.40;16.60;;;10.20;93.20;;;;;;5139507;27;20413;-76
2022/03/20 11:38:22;;;;;;;25.42;15.80;;;10.40;93.50;;;;;;5157671;27;20045;-75
2022/03/20 11:41:17;;;;;;;25.65;16.13;;;10.30;92.60;;;;;;5123417;27;20106;-77
2022/03/20 11:43:45;;;;;;;24.83;17.00;;;10.40;93.70;;;;;;5157672;27;20046;-76
2022/03/20 11:46:21;;;;;;;25.83;15.82;;;10.50;93.40;;;;;;5157982;27;20042;-76
2022/03/20 11:49:29;;;;;;;26.05;16.35;;;10.60;92.50;;;;;;5157628;27;20122;-76
2022/03/20 11:52:15;;;;;;;24.83;15.93;;;10.60;92.50;;;;;;5155707;27;20575;-75
2022/03/20 11:54:41;;;;;;;25.98;15.98;;;10.60;92.40;;;;;;5157479;27;20038;-78
2022/03/20 11:57:28;;;;;;;27.30;16.52;;;10.60;92.00;;;;;;5139233;27;20039;-76
2022/03/20 11:59:58;;;;;;;24.53;16.40;;;10.70;92.50;;;;;;5157104;27;20058;-78
2022/03/20 12:02:46;;;;;;;25.33;16.48;;;10.60;92.30;;;;;;5157363;27;20057;-77
2022/03/20 12:05:17;;;;;;;;;;;10.80;93.20;;;;;;5157389;27;20094;-77
2022/03/20 12:08:01;;;;;;;23.98;15.50;;;10.90;91.70;;;;;;5156328;27;20377;-78
2022/03/20 12:10:32;;;;;;;27.65;16.40;;;10.90;92.20;;;;;;5156855;27;20551;-79
2022/03/20 12:13:14;;;;;;;26.50;16.73;;;11.10;92.00;;;;;;5138874;27;20471;-78
2022/03/20 12:15:44;;;;;;;26.10;17.63;;;11.20;91.70;;;;;;5138625;27;20039;-78
2022/03/20 12:18:11;;;;;;;24.20;15.63;;;11.40;91.60;;;;;;5157121;27;20046;-77
2022/03/20 12:20:48;;;;;;;25.77;16.80;;;11.60;91.40;;;;;;5156857;27;20450;-77
2022/03/20 12:23:43;;;;;;;27.77;17.02;;;11.80;91.00;;;;;;5156957;27;20058;-78
2022/03/20 12:26:33;;;;;;;28.23;16.20;;;11.80;90.60;;;;;;5154279;27;20487;-78
2022/03/20 12:29:32;;;;;;;26.40;16.95;;;11.70;90.20;;;;;;5156790;27;20049;-78
2022/03/20 12:32:00;;;;;;;28.08;16.33;;;11.50;90.00;;;;;;5139272;27;20126;-77
2022/03/20 12:34:26;;;;;;;27.52;16.88;;;11.40;90.60;;;;;;5156618;27;20047;-78
2022/03/20 12:36:53;;;;;;;28.30;17.60;;;11.40;90.60;;;;;;5156776;27;20443;-79
2022/03/20 12:39:47;;;;;;;28.45;17.55;;;11.20;91.20;;;;;;5138108;27;20410;-78
2022/03/20 12:42:17;;;;;;;28.80;17.00;;;11.10;91.40;;;;;;5156564;27;20087;-77
2022/03/20 12:44:51;;;;;;;25.38;16.73;;;11.20;91.90;;;;;;5156826;27;20397;-78
2022/03/20 12:47:22;;;;;;;26.98;16.13;;;11.40;90.80;;;;;;5138239;27;20047;-78
2022/03/20 12:50:00;;;;;;;26.05;17.27;;;11.40;91.00;;;;;;5156018;27;20039;-78
2022/03/20 12:52:29;;;;;;;26.27;17.17;;;11.30;90.80;;;;;;5137931;27;20085;-77
2022/03/20 12:54:59;;;;;;;27.33;17.50;;;11.30;91.30;;;;;;5155981;27;20482;-77
2022/03/20 12:57:42;;;;;;;25.17;16.52;;;11.30;91.50;;;;;;5156667;27;20050;-77
2022/03/20 13:00:24;;;;;;;27.80;16.90;;;11.50;90.80;;;;;;5156197;27;20051;-78
2022/03/20 13:03:07;;;;;;;24.00;16.30;;;11.70;91.00;;;;;;5156571;27;20047;-78
2022/03/20 13:05:45;;;;;;;25.92;16.40;;;11.60;90.60;;;;;;5120886;27;20428;-78
2022/03/20 13:08:11;;;;;;;24.63;16.38;;;11.50;90.70;;;;;;5137609;27;20455;-79
2022/03/20 13:10:39;;;;;;;28.50;17.27;;;11.50;91.10;;;;;;5137621;27;20082;-79
2022/03/20 13:13:07;;;;;;;25.40;17.02;;;11.50;91.60;;;;;;5120750;27;20107;-78
2022/03/20 13:15:33;;;;;;;27.88;17.73;;;11.50;92.10;;;;;;5156108;27;20046;-78
2022/03/20 13:18:01;;;;;;;25.55;17.05;;;11.50;91.00;;;;;;5137618;27;20042;-78
2022/03/20 13:20:33;;;;;;;29.73;17.40;;;11.50;91.20;;;;;;5137434;27;20045;-78